createdAt,value
2017-09-11T00:00:28.829Z,998.75
2017-09-11T00:01:37.657Z,998.77
2017-09-11T00:02:46.486Z,998.75
2017-09-11T00:03:55.317Z,998.76
2017-09-11T00:05:04.152Z,998.74
2017-09-11T00:06:12.977Z,998.74
2017-09-11T00:07:21.805Z,998.74
2017-09-11T00:08:30.635Z,998.72
2017-09-11T00:09:39.468Z,998.71
2017-09-11T00:10:48.619Z,998.73
2017-09-11T00:11:57.453Z,998.73
2017-09-11T00:13:06.279Z,998.72
2017-09-11T00:14:15.106Z,998.7
2017-09-11T00:15:23.934Z,998.69
2017-09-11T00:16:32.771Z,998.63
2017-09-11T00:17:41.598Z,998.63
2017-09-11T00:18:50.431Z,998.56
2017-09-11T00:19:59.253Z,998.57
2017-09-11T00:21:08.080Z,998.55
2017-09-11T00:22:16.912Z,998.53
2017-09-11T00:23:25.742Z,998.6
2017-09-11T00:24:34.572Z,998.65
2017-09-11T00:25:43.401Z,998.57
2017-09-11T00:26:52.227Z,998.64
2017-09-11T00:28:01.058Z,998.61
2017-09-11T00:29:09.893Z,998.61
2017-09-11T00:30:18.723Z,998.62
2017-09-11T00:31:27.545Z,998.57
2017-09-11T00:32:36.378Z,998.58
2017-09-11T00:33:45.207Z,998.59
2017-09-11T00:34:54.040Z,998.59
2017-09-11T00:36:02.870Z,998.56
2017-09-11T00:37:11.700Z,998.59
2017-09-11T00:38:20.528Z,998.55
2017-09-11T00:39:29.363Z,998.48
2017-09-11T00:40:38.187Z,998.5
2017-09-11T00:41:47.019Z,998.49
2017-09-11T00:42:55.843Z,998.48
2017-09-11T00:44:04.668Z,998.54
2017-09-11T00:45:13.495Z,998.51
2017-09-11T00:46:22.327Z,998.51
2017-09-11T00:47:31.151Z,998.46
2017-09-11T00:48:39.981Z,998.47
2017-09-11T00:49:48.807Z,998.46
2017-09-11T00:50:57.637Z,998.44
2017-09-11T00:52:06.460Z,998.4
2017-09-11T00:53:15.290Z,998.42
2017-09-11T00:54:24.122Z,998.37
2017-09-11T00:55:32.953Z,998.39
2017-09-11T00:56:41.781Z,998.39
2017-09-11T00:57:50.608Z,998.33
2017-09-11T00:58:59.439Z,998.38
2017-09-11T01:00:08.273Z,998.33
2017-09-11T01:01:17.097Z,998.31
2017-09-11T01:02:25.927Z,998.29
2017-09-11T01:03:34.754Z,998.31
2017-09-11T01:04:43.580Z,998.32
2017-09-11T01:05:52.407Z,998.28
2017-09-11T01:07:01.240Z,998.23
2017-09-11T01:08:10.067Z,998.28
2017-09-11T01:09:18.899Z,998.22
2017-09-11T01:10:27.723Z,998.3
2017-09-11T01:11:36.547Z,998.29
2017-09-11T01:12:45.381Z,998.28
2017-09-11T01:13:54.210Z,998.3
2017-09-11T01:15:03.033Z,998.26
2017-09-11T01:16:11.865Z,998.33
2017-09-11T01:17:20.694Z,998.27
2017-09-11T01:18:29.523Z,998.27
2017-09-11T01:19:38.356Z,998.3
2017-09-11T01:20:47.188Z,998.24
2017-09-11T01:21:56.013Z,998.28
2017-09-11T01:23:04.841Z,998.27
2017-09-11T01:24:13.671Z,998.28
2017-09-11T01:25:22.502Z,998.28
2017-09-11T01:26:31.344Z,998.21
2017-09-11T01:27:40.163Z,998.2
2017-09-11T01:28:48.993Z,998.16
2017-09-11T01:29:57.825Z,998.18
2017-09-11T01:31:06.651Z,998.14
2017-09-11T01:32:15.478Z,998.15
2017-09-11T01:33:24.310Z,998.1
2017-09-11T01:34:33.139Z,998.1
2017-09-11T01:35:41.975Z,998.09
2017-09-11T01:36:50.795Z,998.13
2017-09-11T01:37:59.625Z,998.05
2017-09-11T01:39:08.457Z,998.11
2017-09-11T01:40:17.282Z,998.05
2017-09-11T01:41:26.107Z,998.06
2017-09-11T01:42:34.935Z,998.08
2017-09-11T01:43:43.763Z,998.07
2017-09-11T01:44:52.596Z,998.06
2017-09-11T01:46:01.426Z,998.1
2017-09-11T01:47:10.252Z,998.05
2017-09-11T01:48:19.083Z,998.03
2017-09-11T01:49:27.913Z,998
2017-09-11T01:50:36.744Z,998.05
2017-09-11T01:51:45.577Z,997.99
2017-09-11T01:52:54.398Z,997.97
2017-09-11T01:54:03.227Z,997.98
2017-09-11T01:55:12.053Z,997.9
2017-09-11T01:56:21.211Z,997.98
2017-09-11T01:57:30.036Z,998.04
2017-09-11T01:58:38.868Z,998.03
2017-09-11T01:59:47.698Z,998.02
2017-09-11T02:00:56.523Z,998
2017-09-11T02:02:05.353Z,997.99
2017-09-11T02:03:14.180Z,997.97
2017-09-11T02:04:23.005Z,997.98
2017-09-11T02:05:31.833Z,997.96
2017-09-11T02:06:40.662Z,997.95
2017-09-11T02:07:49.486Z,997.92
2017-09-11T02:08:58.319Z,997.92
2017-09-11T02:10:07.148Z,997.98
2017-09-11T02:11:15.970Z,997.91
2017-09-11T02:12:24.801Z,997.95
2017-09-11T02:13:33.630Z,997.99
2017-09-11T02:14:42.457Z,997.9
2017-09-11T02:15:51.288Z,997.89
2017-09-11T02:17:00.113Z,997.88
2017-09-11T02:18:08.939Z,997.82
2017-09-11T02:19:17.767Z,997.79
2017-09-11T02:20:26.599Z,997.82
2017-09-11T02:21:35.426Z,997.77
2017-09-11T02:22:44.577Z,997.7
2017-09-11T02:23:53.403Z,997.74
2017-09-11T02:25:02.228Z,997.71
2017-09-11T02:26:11.057Z,997.7
2017-09-11T02:27:19.888Z,997.67
2017-09-11T02:28:28.716Z,997.66
2017-09-11T02:29:37.547Z,997.65
2017-09-11T02:30:46.369Z,997.66
2017-09-11T02:31:55.197Z,997.63
2017-09-11T02:33:04.026Z,997.65
2017-09-11T02:34:12.860Z,997.62
2017-09-11T02:35:21.683Z,997.61
2017-09-11T02:36:30.505Z,997.59
2017-09-11T02:37:39.333Z,997.62
2017-09-11T02:38:48.160Z,997.62
2017-09-11T02:39:56.995Z,997.56
2017-09-11T02:41:05.820Z,997.57
2017-09-11T02:42:14.648Z,997.56
2017-09-11T02:43:23.481Z,997.52
2017-09-11T02:44:32.307Z,997.5
2017-09-11T02:45:41.135Z,997.5
2017-09-11T02:46:49.961Z,997.53
2017-09-11T02:47:58.797Z,997.52
2017-09-11T02:49:07.623Z,997.55
2017-09-11T02:50:16.449Z,997.55
2017-09-11T02:51:25.277Z,997.51
2017-09-11T02:52:34.108Z,997.58
2017-09-11T02:53:42.932Z,997.49
2017-09-11T02:54:51.762Z,997.53
2017-09-11T02:56:00.595Z,997.48
2017-09-11T02:57:09.420Z,997.51
2017-09-11T02:58:18.248Z,997.48
2017-09-11T02:59:27.074Z,997.49
2017-09-11T03:00:35.902Z,997.46
2017-09-11T03:01:44.735Z,997.44
2017-09-11T03:02:53.563Z,997.44
2017-09-11T03:04:02.392Z,997.46
2017-09-11T03:05:11.223Z,997.45
2017-09-11T03:06:20.051Z,997.46
2017-09-11T03:07:28.878Z,997.47
2017-09-11T03:08:37.708Z,997.45
2017-09-11T03:09:46.529Z,997.39
2017-09-11T03:10:55.354Z,997.43
2017-09-11T03:12:04.188Z,997.44
2017-09-11T03:13:13.016Z,997.47
2017-09-11T03:14:21.844Z,997.43
2017-09-11T03:15:30.672Z,997.46
2017-09-11T03:16:39.497Z,997.41
2017-09-11T03:17:48.326Z,997.43
2017-09-11T03:18:57.153Z,997.39
2017-09-11T03:20:05.983Z,997.35
2017-09-11T03:21:14.813Z,997.35
2017-09-11T03:22:23.638Z,997.32
2017-09-11T03:23:32.461Z,997.29
2017-09-11T03:24:41.289Z,997.26
2017-09-11T03:25:50.119Z,997.23
2017-09-11T03:26:58.944Z,997.23
2017-09-11T03:28:08.422Z,997.21
2017-09-11T03:29:17.246Z,997.26
2017-09-11T03:30:26.077Z,997.17
2017-09-11T03:31:34.902Z,997.21
2017-09-11T03:32:43.732Z,997.19
2017-09-11T03:33:52.560Z,997.2
2017-09-11T03:35:01.382Z,997.16
2017-09-11T03:36:10.208Z,997.18
2017-09-11T03:37:19.037Z,997.16
2017-09-11T03:38:27.866Z,997.12
2017-09-11T03:39:36.692Z,997.13
2017-09-11T03:40:45.524Z,997.12
2017-09-11T03:41:54.345Z,997.12
2017-09-11T03:43:03.177Z,997.09
2017-09-11T03:44:11.999Z,997.02
2017-09-11T03:45:20.828Z,997.04
2017-09-11T03:46:29.659Z,996.98
2017-09-11T03:47:38.486Z,996.95
2017-09-11T03:48:47.309Z,996.95
2017-09-11T03:49:56.136Z,996.97
2017-09-11T03:51:04.961Z,996.91
2017-09-11T03:52:13.788Z,996.9
2017-09-11T03:53:22.618Z,996.95
2017-09-11T03:54:31.444Z,996.95
2017-09-11T03:55:40.268Z,996.96
2017-09-11T03:56:49.098Z,996.9
2017-09-11T03:57:58.253Z,996.89
2017-09-11T03:59:07.082Z,996.84
2017-09-11T04:00:15.911Z,996.82
2017-09-11T04:01:24.787Z,996.83
2017-09-11T04:02:33.948Z,996.76
2017-09-11T04:03:42.771Z,996.74
2017-09-11T04:04:51.598Z,996.81
2017-09-11T04:06:00.425Z,996.76
2017-09-11T04:07:09.255Z,996.71
2017-09-11T04:08:18.087Z,996.75
2017-09-11T04:09:26.908Z,996.76
2017-09-11T04:10:35.736Z,996.77
2017-09-11T04:11:44.565Z,996.72
2017-09-11T04:12:53.394Z,996.72
2017-09-11T04:14:02.221Z,996.67
2017-09-11T04:15:11.052Z,996.65
2017-09-11T04:16:19.874Z,996.62
2017-09-11T04:17:28.704Z,996.71
2017-09-11T04:18:37.537Z,996.65
2017-09-11T04:19:46.359Z,996.61
2017-09-11T04:20:55.187Z,996.65
2017-09-11T04:22:04.013Z,996.62
2017-09-11T04:23:12.842Z,996.61
2017-09-11T04:24:21.670Z,996.53
2017-09-11T04:25:30.495Z,996.54
2017-09-11T04:26:39.331Z,996.59
2017-09-11T04:27:48.152Z,996.53
2017-09-11T04:28:56.982Z,996.57
2017-09-11T04:30:05.808Z,996.54
2017-09-11T04:31:14.639Z,996.54
2017-09-11T04:32:23.467Z,996.53
2017-09-11T04:33:32.618Z,996.58
2017-09-11T04:34:41.802Z,996.57
2017-09-11T04:35:50.631Z,996.51
2017-09-11T04:36:59.460Z,996.56
2017-09-11T04:38:08.289Z,996.5
2017-09-11T04:39:17.115Z,996.52
2017-09-11T04:40:26.262Z,996.57
2017-09-11T04:41:35.089Z,996.56
2017-09-11T04:42:43.913Z,996.55
2017-09-11T04:43:52.745Z,996.56
2017-09-11T04:45:01.576Z,996.56
2017-09-11T04:46:10.401Z,996.54
2017-09-11T04:47:19.230Z,996.5
2017-09-11T04:48:28.060Z,996.53
2017-09-11T04:49:36.888Z,996.48
2017-09-11T04:50:45.717Z,996.47
2017-09-11T04:51:54.549Z,996.47
2017-09-11T04:53:03.377Z,996.44
2017-09-11T04:54:12.201Z,996.43
2017-09-11T04:55:21.034Z,996.41
2017-09-11T04:56:29.857Z,996.42
2017-09-11T04:57:38.693Z,996.4
2017-09-11T04:58:47.517Z,996.38
2017-09-11T04:59:56.342Z,996.33
2017-09-11T05:01:05.168Z,996.35
2017-09-11T05:02:13.998Z,996.39
2017-09-11T05:03:23.148Z,996.38
2017-09-11T05:04:31.975Z,996.41
2017-09-11T05:05:40.804Z,996.42
2017-09-11T05:06:49.625Z,996.43
2017-09-11T05:07:58.453Z,996.41
2017-09-11T05:09:07.282Z,996.38
2017-09-11T05:10:16.109Z,996.33
2017-09-11T05:11:24.929Z,996.32
2017-09-11T05:12:33.763Z,996.37
2017-09-11T05:13:42.591Z,996.32
2017-09-11T05:14:51.415Z,996.36
2017-09-11T05:16:00.245Z,996.37
2017-09-11T05:17:09.070Z,996.31
2017-09-11T05:18:17.895Z,996.34
2017-09-11T05:19:26.724Z,996.28
2017-09-11T05:20:35.554Z,996.3
2017-09-11T05:21:44.379Z,996.2
2017-09-11T05:22:53.214Z,996.22
2017-09-11T05:24:02.038Z,996.2
2017-09-11T05:25:10.866Z,996.19
2017-09-11T05:26:19.694Z,996.19
2017-09-11T05:27:28.520Z,996.19
2017-09-11T05:28:37.346Z,996.2
2017-09-11T05:29:46.176Z,996.23
2017-09-11T05:30:55.011Z,996.25
2017-09-11T05:32:04.160Z,996.23
2017-09-11T05:33:12.990Z,996.28
2017-09-11T05:34:21.816Z,996.26
2017-09-11T05:35:30.640Z,996.24
2017-09-11T05:36:39.469Z,996.24
2017-09-11T05:37:48.298Z,996.25
2017-09-11T05:38:57.126Z,996.32
2017-09-11T05:40:05.956Z,996.29
2017-09-11T05:41:14.783Z,996.28
2017-09-11T05:42:23.606Z,996.28
2017-09-11T05:43:32.434Z,996.27
2017-09-11T05:44:41.267Z,996.23
2017-09-11T05:45:50.092Z,996.27
2017-09-11T05:46:58.917Z,996.29
2017-09-11T05:48:07.747Z,996.24
2017-09-11T05:49:16.574Z,996.27
2017-09-11T05:50:25.403Z,996.23
2017-09-11T05:51:34.557Z,996.27
2017-09-11T05:52:43.386Z,996.32
2017-09-11T05:53:52.208Z,996.28
2017-09-11T05:55:01.040Z,996.29
2017-09-11T05:56:09.865Z,996.23
2017-09-11T05:57:18.696Z,996.21
2017-09-11T05:58:27.528Z,996.16
2017-09-11T05:59:36.355Z,996.15
2017-09-11T06:00:45.182Z,996.18
2017-09-11T06:01:54.012Z,996.18
2017-09-11T06:03:02.838Z,996.17
2017-09-11T06:04:11.987Z,996.15
2017-09-11T06:05:20.818Z,996.19
2017-09-11T06:06:29.643Z,996.09
2017-09-11T06:07:38.472Z,996.09
2017-09-11T06:08:47.305Z,996.01
2017-09-11T06:09:56.128Z,996.05
2017-09-11T06:11:04.958Z,996.07
2017-09-11T06:12:13.781Z,996.06
2017-09-11T06:13:22.617Z,996.11
2017-09-11T06:14:31.442Z,996.11
2017-09-11T06:15:40.275Z,996.09
2017-09-11T06:16:49.100Z,996.01
2017-09-11T06:17:57.930Z,996.04
2017-09-11T06:19:06.760Z,996.02
2017-09-11T06:20:15.591Z,995.98
2017-09-11T06:21:24.421Z,995.93
2017-09-11T06:22:33.248Z,995.93
2017-09-11T06:23:42.079Z,995.94
2017-09-11T06:24:50.907Z,995.9
2017-09-11T06:25:59.739Z,995.95
2017-09-11T06:27:08.568Z,995.86
2017-09-11T06:28:17.393Z,995.93
2017-09-11T06:29:26.225Z,995.86
2017-09-11T06:30:35.056Z,995.88
2017-09-11T06:31:43.880Z,995.84
2017-09-11T06:32:52.710Z,995.87
2017-09-11T06:34:01.535Z,995.87
2017-09-11T06:35:10.364Z,995.79
2017-09-11T06:36:19.192Z,995.84
2017-09-11T06:37:28.022Z,995.84
2017-09-11T06:38:36.856Z,995.82
2017-09-11T06:39:45.680Z,995.75
2017-09-11T06:40:54.508Z,995.73
2017-09-11T06:42:03.336Z,995.78
2017-09-11T06:43:12.164Z,995.78
2017-09-11T06:44:20.988Z,995.78
2017-09-11T06:45:29.821Z,995.8
2017-09-11T06:46:38.643Z,995.8
2017-09-11T06:47:47.475Z,995.79
2017-09-11T06:48:56.301Z,995.84
2017-09-11T06:50:05.126Z,995.73
2017-09-11T06:51:13.956Z,995.7
2017-09-11T06:52:22.782Z,995.84
2017-09-11T06:53:31.614Z,995.84
2017-09-11T06:54:40.443Z,995.78
2017-09-11T06:55:49.274Z,995.83
2017-09-11T06:56:58.100Z,995.88
2017-09-11T06:58:06.930Z,995.93
2017-09-11T06:59:15.761Z,995.94
2017-09-11T07:00:24.586Z,995.91
2017-09-11T07:01:33.735Z,995.85
2017-09-11T07:02:42.566Z,995.83
2017-09-11T07:03:51.397Z,995.85
2017-09-11T07:05:00.221Z,995.89
2017-09-11T07:06:09.052Z,995.82
2017-09-11T07:07:17.881Z,995.8
2017-09-11T07:08:26.706Z,995.87
2017-09-11T07:09:35.539Z,995.81
2017-09-11T07:10:44.370Z,995.82
2017-09-11T07:11:53.207Z,995.83
2017-09-11T07:13:02.029Z,995.81
2017-09-11T07:14:10.862Z,995.84
2017-09-11T07:15:19.692Z,995.84
2017-09-11T07:16:28.525Z,995.88
2017-09-11T07:17:37.669Z,995.86
2017-09-11T07:18:46.495Z,995.92
2017-09-11T07:19:55.334Z,995.94
2017-09-11T07:21:04.161Z,995.94
2017-09-11T07:22:12.988Z,995.99
2017-09-11T07:23:21.825Z,995.97
2017-09-11T07:24:30.649Z,996.07
2017-09-11T07:25:39.806Z,996.03
2017-09-11T07:26:48.642Z,996.05
2017-09-11T07:27:57.478Z,995.99
2017-09-11T07:29:06.302Z,996.03
2017-09-11T07:30:15.133Z,996
2017-09-11T07:31:23.965Z,995.99
2017-09-11T07:32:32.802Z,995.97
2017-09-11T07:33:41.631Z,995.95
2017-09-11T07:34:50.465Z,995.97
2017-09-11T07:35:59.294Z,995.94
2017-09-11T07:37:08.121Z,995.92
2017-09-11T07:38:16.951Z,995.95
2017-09-11T07:39:25.775Z,995.93
2017-09-11T07:40:34.611Z,995.95
2017-09-11T07:41:43.444Z,995.95
2017-09-11T07:42:52.276Z,995.98
2017-09-11T07:44:01.098Z,996.03
2017-09-11T07:45:09.929Z,995.97
2017-09-11T07:46:18.754Z,996.05
2017-09-11T07:47:27.589Z,996.03
2017-09-11T07:48:36.422Z,995.98
2017-09-11T07:49:45.251Z,995.95
2017-09-11T07:50:54.401Z,995.91
2017-09-11T07:52:03.231Z,995.87
2017-09-11T07:53:12.062Z,995.83
2017-09-11T07:54:20.893Z,995.79
2017-09-11T07:55:29.720Z,995.78
2017-09-11T07:56:38.549Z,995.79
2017-09-11T07:57:47.378Z,995.83
2017-09-11T07:58:56.214Z,995.83
2017-09-11T08:00:05.041Z,995.89
2017-09-11T08:01:13.872Z,995.83
2017-09-11T08:02:22.703Z,995.82
2017-09-11T08:03:31.531Z,995.84
2017-09-11T08:04:40.360Z,995.82
2017-09-11T08:05:49.194Z,995.88
2017-09-11T08:06:58.347Z,995.83
2017-09-11T08:08:07.175Z,995.85
2017-09-11T08:09:16.009Z,995.89
2017-09-11T08:10:24.838Z,995.86
2017-09-11T08:11:33.669Z,995.86
2017-09-11T08:12:42.498Z,995.82
2017-09-11T08:13:51.324Z,995.77
2017-09-11T08:15:00.152Z,995.8
2017-09-11T08:16:08.984Z,995.82
2017-09-11T08:17:17.815Z,995.83
2017-09-11T08:18:26.642Z,995.9
2017-09-11T08:19:35.471Z,995.86
2017-09-11T08:20:44.303Z,995.86
2017-09-11T08:21:53.131Z,995.92
2017-09-11T08:23:01.966Z,995.83
2017-09-11T08:24:10.791Z,995.88
2017-09-11T08:25:19.617Z,995.79
2017-09-11T08:26:28.445Z,995.78
2017-09-11T08:27:37.279Z,995.82
2017-09-11T08:28:46.106Z,995.79
2017-09-11T08:29:54.942Z,995.81
2017-09-11T08:31:03.768Z,995.9
2017-09-11T08:32:12.596Z,995.89
2017-09-11T08:33:21.430Z,995.85
2017-09-11T08:34:30.254Z,995.79
2017-09-11T08:35:39.088Z,995.84
2017-09-11T08:36:47.914Z,995.8
2017-09-11T08:37:56.750Z,995.78
2017-09-11T08:39:05.580Z,995.79
2017-09-11T08:40:14.406Z,995.74
2017-09-11T08:41:23.234Z,995.69
2017-09-11T08:42:32.066Z,995.66
2017-09-11T08:43:40.900Z,995.6
2017-09-11T08:44:49.727Z,995.57
2017-09-11T08:45:58.559Z,995.6
2017-09-11T08:47:07.387Z,995.53
2017-09-11T08:48:16.217Z,995.55
2017-09-11T08:49:25.049Z,995.62
2017-09-11T08:50:33.879Z,995.58
2017-09-11T08:51:42.711Z,995.52
2017-09-11T08:52:51.541Z,995.51
2017-09-11T08:54:00.374Z,995.48
2017-09-11T08:55:09.202Z,995.43
2017-09-11T08:56:18.033Z,995.39
2017-09-11T08:57:27.187Z,995.37
2017-09-11T08:58:36.016Z,995.41
2017-09-11T08:59:44.848Z,995.37
2017-09-11T09:00:53.677Z,995.41
2017-09-11T09:02:02.505Z,995.47
2017-09-11T09:03:11.334Z,995.42
2017-09-11T09:04:20.170Z,995.42
2017-09-11T09:05:28.996Z,995.44
2017-09-11T09:06:37.828Z,995.37
2017-09-11T09:07:46.654Z,995.4
2017-09-11T09:08:55.480Z,995.36
2017-09-11T09:10:04.313Z,995.37
2017-09-11T09:11:13.141Z,995.32
2017-09-11T09:12:21.973Z,995.31
2017-09-11T09:13:30.804Z,995.32
2017-09-11T09:14:39.632Z,995.38
2017-09-11T09:15:48.464Z,995.38
2017-09-11T09:16:57.296Z,995.41
2017-09-11T09:18:06.135Z,995.36
2017-09-11T09:19:14.958Z,995.3
2017-09-11T09:20:23.789Z,995.34
2017-09-11T09:21:32.617Z,995.34
2017-09-11T09:22:41.448Z,995.26
2017-09-11T09:23:50.282Z,995.22
2017-09-11T09:24:59.118Z,995.24
2017-09-11T09:26:07.947Z,995.25
2017-09-11T09:27:16.775Z,995.32
2017-09-11T09:28:25.613Z,995.21
2017-09-11T09:29:34.440Z,995.26
2017-09-11T09:30:43.269Z,995.2
2017-09-11T09:31:52.103Z,995.24
2017-09-11T09:33:00.942Z,995.17
2017-09-11T09:34:09.765Z,995.2
2017-09-11T09:35:18.597Z,995.19
2017-09-11T09:36:27.423Z,995.23
2017-09-11T09:37:36.257Z,995.22
2017-09-11T09:38:45.091Z,995.18
2017-09-11T09:39:53.920Z,995.2
2017-09-11T09:41:02.752Z,995.16
2017-09-11T09:42:11.586Z,995.11
2017-09-11T09:43:20.415Z,995.04
2017-09-11T09:44:29.252Z,995.12
2017-09-11T09:45:38.087Z,995.17
2017-09-11T09:46:46.913Z,995.17
2017-09-11T09:47:55.740Z,995.18
2017-09-11T09:49:04.576Z,995.17
2017-09-11T09:50:13.402Z,995.12
2017-09-11T09:51:22.236Z,995.19
2017-09-11T09:52:31.067Z,995.12
2017-09-11T09:53:39.924Z,995.15
2017-09-11T09:54:48.727Z,995.18
2017-09-11T09:55:57.558Z,995.1
2017-09-11T09:57:06.388Z,995.21
2017-09-11T09:58:15.216Z,995.12
2017-09-11T09:59:24.045Z,995.08
2017-09-11T10:00:32.872Z,995.06
2017-09-11T10:01:41.706Z,995.12
2017-09-11T10:02:50.536Z,995.11
2017-09-11T10:03:59.366Z,995.12
2017-09-11T10:05:08.193Z,995.12
2017-09-11T10:06:17.028Z,995.1
2017-09-11T10:07:25.859Z,995.12
2017-09-11T10:08:34.690Z,995.18
2017-09-11T10:09:43.521Z,995.11
2017-09-11T10:10:52.353Z,995.05
2017-09-11T10:12:01.184Z,995.03
2017-09-11T10:13:10.019Z,995.05
2017-09-11T10:14:18.853Z,994.97
2017-09-11T10:15:28.002Z,995.02
2017-09-11T10:16:36.833Z,995.1
2017-09-11T10:17:45.672Z,995.12
2017-09-11T10:18:54.503Z,994.98
2017-09-11T10:20:03.337Z,994.97
2017-09-11T10:21:12.165Z,995.02
2017-09-11T10:22:20.994Z,994.92
2017-09-11T10:23:29.829Z,994.86
2017-09-11T10:24:38.984Z,994.86
2017-09-11T10:25:47.813Z,994.88
2017-09-11T10:26:56.644Z,994.86
2017-09-11T10:28:05.473Z,994.89
2017-09-11T10:29:14.296Z,994.94
2017-09-11T10:30:23.136Z,994.96
2017-09-11T10:31:31.965Z,994.92
2017-09-11T10:32:40.800Z,994.94
2017-09-11T10:33:49.627Z,994.89
2017-09-11T10:34:58.466Z,994.97
2017-09-11T10:36:07.291Z,994.99
2017-09-11T10:37:16.124Z,995.05
2017-09-11T10:38:24.959Z,995.05
2017-09-11T10:39:33.793Z,995
2017-09-11T10:40:42.626Z,995.05
2017-09-11T10:41:51.457Z,995.02
2017-09-11T10:43:00.289Z,995.06
2017-09-11T10:44:09.123Z,995.02
2017-09-11T10:45:17.957Z,995.06
2017-09-11T10:46:26.788Z,994.97
2017-09-11T10:47:35.617Z,995.05
2017-09-11T10:48:44.454Z,995.07
2017-09-11T10:49:53.283Z,995.01
2017-09-11T10:51:02.122Z,995.02
2017-09-11T10:52:11.281Z,995.01
2017-09-11T10:53:20.113Z,995.09
2017-09-11T10:54:29.259Z,994.96
2017-09-11T10:55:38.093Z,995.02
2017-09-11T10:56:46.926Z,994.94
2017-09-11T10:57:55.756Z,994.96
2017-09-11T10:59:04.591Z,995.09
2017-09-11T11:00:13.420Z,995.01
2017-09-11T11:01:22.249Z,994.97
2017-09-11T11:02:31.086Z,994.95
2017-09-11T11:03:39.915Z,994.97
2017-09-11T11:04:48.750Z,995.04
2017-09-11T11:05:57.583Z,995.05
2017-09-11T11:07:06.415Z,995.02
2017-09-11T11:08:15.245Z,994.98
2017-09-11T11:09:24.084Z,994.94
2017-09-11T11:10:32.918Z,994.95
2017-09-11T11:11:41.749Z,994.89
2017-09-11T11:12:50.581Z,994.93
2017-09-11T11:13:59.419Z,994.92
2017-09-11T11:15:08.250Z,994.97
2017-09-11T11:16:17.083Z,994.99
2017-09-11T11:17:25.912Z,995.01
2017-09-11T11:18:34.748Z,994.98
2017-09-11T11:19:43.580Z,994.92
2017-09-11T11:20:52.735Z,994.96
2017-09-11T11:22:01.562Z,994.98
2017-09-11T11:23:10.395Z,994.97
2017-09-11T11:24:19.223Z,994.89
2017-09-11T11:25:28.051Z,994.84
2017-09-11T11:26:36.885Z,994.97
2017-09-11T11:27:45.714Z,994.97
2017-09-11T11:28:54.543Z,995.13
2017-09-11T11:30:03.381Z,995.18
2017-09-11T11:31:12.207Z,995.21
2017-09-11T11:32:21.366Z,995.07
2017-09-11T11:33:30.196Z,995.08
2017-09-11T11:34:39.031Z,995.17
2017-09-11T11:35:47.861Z,994.95
2017-09-11T11:36:56.690Z,995.02
2017-09-11T11:38:05.524Z,995.08
2017-09-11T11:39:14.356Z,995.01
2017-09-11T11:40:23.190Z,995.09
2017-09-11T11:41:32.018Z,995.14
2017-09-11T11:42:40.853Z,995.1
2017-09-11T11:43:49.685Z,995.14
2017-09-11T11:44:58.519Z,995.06
2017-09-11T11:46:07.355Z,995.14
2017-09-11T11:47:16.184Z,995.15
2017-09-11T11:48:25.018Z,995.14
2017-09-11T11:49:33.845Z,995.2
2017-09-11T11:50:42.678Z,995.16
2017-09-11T11:51:51.512Z,995.27
2017-09-11T11:53:00.342Z,995.2
2017-09-11T11:54:09.170Z,995.2
2017-09-11T11:55:18.006Z,995.21
2017-09-11T11:56:26.838Z,995.16
2017-09-11T11:57:35.669Z,995.14
2017-09-11T11:58:44.505Z,995.06
2017-09-11T11:59:53.336Z,995.06
2017-09-11T12:01:02.164Z,995.1
2017-09-11T12:02:10.997Z,995.12
2017-09-11T12:03:19.828Z,995.05
2017-09-11T12:04:28.664Z,995.05
2017-09-11T12:05:37.499Z,995.01
2017-09-11T12:06:46.329Z,995.04
2017-09-11T12:07:55.162Z,995.01
2017-09-11T12:09:03.999Z,995.07
2017-09-11T12:10:13.149Z,995.07
2017-09-11T12:11:21.979Z,995.08
2017-09-11T12:12:30.814Z,995.05
2017-09-11T12:13:39.642Z,995.12
2017-09-11T12:14:48.470Z,995.02
2017-09-11T12:15:57.308Z,995.05
2017-09-11T12:17:06.138Z,995.03
2017-09-11T12:18:14.976Z,995.1
2017-09-11T12:19:23.811Z,995.04
2017-09-11T12:20:32.964Z,994.96
2017-09-11T12:21:41.792Z,994.95
2017-09-11T12:22:50.631Z,994.9
2017-09-11T12:23:59.462Z,994.92
2017-09-11T12:25:08.295Z,994.89
2017-09-11T12:26:17.133Z,994.9
2017-09-11T12:27:25.959Z,994.9
2017-09-11T12:28:34.801Z,994.89
2017-09-11T12:29:43.635Z,994.86
2017-09-11T12:30:52.469Z,994.87
2017-09-11T12:32:01.626Z,994.84
2017-09-11T12:33:10.459Z,994.87
2017-09-11T12:34:19.293Z,994.93
2017-09-11T12:35:28.128Z,994.88
2017-09-11T12:36:36.958Z,994.92
2017-09-11T12:37:45.795Z,994.85
2017-09-11T12:38:54.623Z,994.81
2017-09-11T12:40:03.456Z,994.79
2017-09-11T12:41:12.285Z,994.84
2017-09-11T12:42:21.122Z,994.79
2017-09-11T12:43:29.956Z,994.84
2017-09-11T12:44:38.781Z,994.78
2017-09-11T12:45:47.612Z,994.77
2017-09-11T12:46:56.772Z,994.8
2017-09-11T12:48:05.603Z,994.84
2017-09-11T12:49:14.434Z,994.76
2017-09-11T12:50:23.267Z,994.8
2017-09-11T12:51:32.094Z,994.85
2017-09-11T12:52:40.925Z,994.74
2017-09-11T12:53:49.758Z,994.85
2017-09-11T12:54:58.592Z,994.81
2017-09-11T12:56:07.430Z,994.82
2017-09-11T12:57:16.256Z,994.9
2017-09-11T12:58:25.084Z,994.87
2017-09-11T12:59:33.922Z,994.93
2017-09-11T13:00:42.758Z,994.93
2017-09-11T13:01:51.585Z,994.9
2017-09-11T13:03:00.414Z,994.93
2017-09-11T13:04:09.246Z,995
2017-09-11T13:05:18.077Z,995.11
2017-09-11T13:06:26.910Z,995.18
2017-09-11T13:07:35.746Z,995.26
2017-09-11T13:08:44.575Z,995.27
2017-09-11T13:09:53.409Z,995.25
2017-09-11T13:11:02.235Z,995.28
2017-09-11T13:12:11.066Z,995.26
2017-09-11T13:13:19.905Z,995.29
2017-09-11T13:14:28.736Z,995.3
2017-09-11T13:15:37.563Z,995.3
2017-09-11T13:16:46.715Z,995.21
2017-09-11T13:17:55.546Z,995.26
2017-09-11T13:19:04.374Z,995.24
2017-09-11T13:20:13.212Z,995.24
2017-09-11T13:21:22.043Z,995.22
2017-09-11T13:22:30.870Z,995.25
2017-09-11T13:23:39.709Z,995.27
2017-09-11T13:24:48.540Z,995.2
2017-09-11T13:25:57.374Z,995.2
2017-09-11T13:27:06.204Z,995.24
2017-09-11T13:28:15.037Z,995.17
2017-09-11T13:29:23.870Z,995.2
2017-09-11T13:30:32.703Z,995.16
2017-09-11T13:31:41.534Z,995.13
2017-09-11T13:32:50.368Z,995.17
2017-09-11T13:33:59.198Z,995.19
2017-09-11T13:35:08.037Z,995.16
2017-09-11T13:36:16.862Z,995.14
2017-09-11T13:37:26.017Z,995.17
2017-09-11T13:38:34.845Z,995.14
2017-09-11T13:39:43.677Z,995.13
2017-09-11T13:40:52.511Z,995.09
2017-09-11T13:42:01.344Z,995.05
2017-09-11T13:43:10.174Z,995.11
2017-09-11T13:44:19.006Z,995.05
2017-09-11T13:45:27.843Z,994.94
2017-09-11T13:46:36.672Z,994.93
2017-09-11T13:47:45.507Z,994.9
2017-09-11T13:48:54.346Z,994.85
2017-09-11T13:50:03.176Z,994.87
2017-09-11T13:51:12.009Z,994.83
2017-09-11T13:52:20.841Z,994.85
2017-09-11T13:53:29.674Z,994.83
2017-09-11T13:54:38.504Z,994.83
2017-09-11T13:55:47.339Z,994.75
2017-09-11T13:56:56.169Z,994.78
2017-09-11T13:58:05.000Z,994.86
2017-09-11T13:59:13.835Z,994.83
2017-09-11T14:00:22.663Z,994.85
2017-09-11T14:01:31.498Z,994.83
2017-09-11T14:02:40.335Z,994.88
2017-09-11T14:03:49.163Z,994.92
2017-09-11T14:04:57.992Z,994.89
2017-09-11T14:06:06.824Z,994.95
2017-09-11T14:07:15.655Z,994.91
2017-09-11T14:08:24.816Z,994.98
2017-09-11T14:09:33.654Z,994.83
2017-09-11T14:10:42.481Z,994.81
2017-09-11T14:11:51.310Z,994.82
2017-09-11T14:13:00.145Z,994.76
2017-09-11T14:14:08.977Z,994.77
2017-09-11T14:15:17.810Z,994.71
2017-09-11T14:16:26.643Z,994.76
2017-09-11T14:17:35.472Z,994.78
2017-09-11T14:18:44.305Z,994.78
2017-09-11T14:19:53.139Z,994.76
2017-09-11T14:21:02.010Z,994.79
2017-09-11T14:22:10.801Z,994.79